sensor_id;sensor_type;location;lat;lon;timestamp;P1;durP1;ratioP1;P2;durP2;ratioP2
20462;SDS011;10390;53.566;9.980;2023-04-02T00:08:58;6.95;;;5.80;;
20462;SDS011;10390;53.566;9.980;2023-04-02T00:11:37;7.57;;;6.03;;
20462;SDS011;10390;53.566;9.980;2023-04-02T00:14:12;8.43;;;5.78;;
20462;SDS011;10390;53.566;9.980;2023-04-02T00:16:46;7.97;;;6.07;;
20462;SDS011;10390;53.566;9.980;2023-04-02T00:19:14;6.63;;;5.15;;
20462;SDS011;10390;53.566;9.980;2023-04-02T00:21:44;7.47;;;5.32;;
20462;SDS011;10390;53.566;9.980;2023-04-02T00:24:16;6.93;;;5.50;;
20462;SDS011;10390;53.566;9.980;2023-04-02T00:26:47;7.50;;;5.38;;
20462;SDS011;10390;53.566;9.980;2023-04-02T00:29:15;8.48;;;5.53;;
20462;SDS011;10390;53.566;9.980;2023-04-02T00:31:43;7.68;;;5.65;;
20462;SDS011;10390;53.566;9.980;2023-04-02T00:34:53;8.20;;;5.38;;
20462;SDS011;10390;53.566;9.980;2023-04-02T00:37:01;8.80;;;5.50;;
20462;SDS011;10390;53.566;9.980;2023-04-02T00:39:28;7.13;;;5.72;;
20462;SDS011;10390;53.566;9.980;2023-04-02T00:41:58;7.40;;;5.47;;
20462;SDS011;10390;53.566;9.980;2023-04-02T00:44:33;8.18;;;5.22;;
20462;SDS011;10390;53.566;9.980;2023-04-02T00:47:10;8.05;;;5.50;;
20462;SDS011;10390;53.566;9.980;2023-04-02T00:49:53;6.20;;;5.60;;
20462;SDS011;10390;53.566;9.980;2023-04-02T00:52:25;8.00;;;5.32;;
20462;SDS011;10390;53.566;9.980;2023-04-02T00:55:02;6.25;;;5.32;;
20462;SDS011;10390;53.566;9.980;2023-04-02T00:57:29;10.50;;;6.00;;
20462;SDS011;10390;53.566;9.980;2023-04-02T01:02:40;6.88;;;5.43;;
20462;SDS011;10390;53.566;9.980;2023-04-02T01:07:51;6.25;;;5.38;;
20462;SDS011;10390;53.566;9.980;2023-04-02T01:12:59;8.45;;;4.95;;
20462;SDS011;10390;53.566;9.980;2023-04-02T01:15:41;7.53;;;5.28;;
20462;SDS011;10390;53.566;9.980;2023-04-02T01:18:18;6.43;;;4.85;;
20462;SDS011;10390;53.566;9.980;2023-04-02T01:20:58;7.30;;;5.03;;
20462;SDS011;10390;53.566;9.980;2023-04-02T01:29:24;6.90;;;4.57;;
20462;SDS011;10390;53.566;9.980;2023-04-02T01:32:11;6.78;;;5.20;;
20462;SDS011;10390;53.566;9.980;2023-04-02T01:34:39;7.65;;;5.43;;
20462;SDS011;10390;53.566;9.980;2023-04-02T01:37:08;5.85;;;5.22;;
20462;SDS011;10390;53.566;9.980;2023-04-02T01:39:59;5.70;;;4.78;;
20462;SDS011;10390;53.566;9.980;2023-04-02T01:45:22;7.53;;;5.07;;
20462;SDS011;10390;53.566;9.980;2023-04-02T01:47:48;5.75;;;5.00;;
20462;SDS011;10390;53.566;9.980;2023-04-02T01:52:44;6.63;;;5.03;;
20462;SDS011;10390;53.566;9.980;2023-04-02T01:55:14;7.72;;;4.95;;
20462;SDS011;10390;53.566;9.980;2023-04-02T01:57:44;6.50;;;5.25;;
20462;SDS011;10390;53.566;9.980;2023-04-02T02:00:15;5.78;;;4.93;;
20462;SDS011;10390;53.566;9.980;2023-04-02T02:02:42;7.20;;;5.38;;
20462;SDS011;10390;53.566;9.980;2023-04-02T02:05:12;5.05;;;4.47;;
20462;SDS011;10390;53.566;9.980;2023-04-02T02:07:40;6.22;;;4.97;;
20462;SDS011;10390;53.566;9.980;2023-04-02T02:10:06;5.43;;;4.90;;
20462;SDS011;10390;53.566;9.980;2023-04-02T02:12:40;5.70;;;5.10;;
20462;SDS011;10390;53.566;9.980;2023-04-02T02:15:13;6.30;;;5.00;;
20462;SDS011;10390;53.566;9.980;2023-04-02T02:17:47;6.40;;;5.07;;
20462;SDS011;10390;53.566;9.980;2023-04-02T02:20:13;7.18;;;5.07;;
20462;SDS011;10390;53.566;9.980;2023-04-02T02:22:43;6.82;;;5.32;;
20462;SDS011;10390;53.566;9.980;2023-04-02T02:25:15;5.95;;;5.00;;
20462;SDS011;10390;53.566;9.980;2023-04-02T02:27:54;7.50;;;5.32;;
20462;SDS011;10390;53.566;9.980;2023-04-02T02:30:38;6.35;;;4.93;;
20462;SDS011;10390;53.566;9.980;2023-04-02T02:33:19;7.15;;;5.32;;
20462;SDS011;10390;53.566;9.980;2023-04-02T02:38:40;5.38;;;4.80;;
20462;SDS011;10390;53.566;9.980;2023-04-02T02:41:18;7.45;;;5.20;;
20462;SDS011;10390;53.566;9.980;2023-04-02T02:43:54;6.07;;;5.15;;
20462;SDS011;10390;53.566;9.980;2023-04-02T02:46:24;5.53;;;4.88;;
20462;SDS011;10390;53.566;9.980;2023-04-02T02:48:52;5.25;;;4.75;;
20462;SDS011;10390;53.566;9.980;2023-04-02T02:51:22;5.47;;;4.95;;
20462;SDS011;10390;53.566;9.980;2023-04-02T02:54:02;8.88;;;5.10;;
20462;SDS011;10390;53.566;9.980;2023-04-02T02:56:29;6.18;;;5.18;;
20462;SDS011;10390;53.566;9.980;2023-04-02T02:58:58;5.85;;;5.05;;
20462;SDS011;10390;53.566;9.980;2023-04-02T03:01:26;5.32;;;4.75;;
20462;SDS011;10390;53.566;9.980;2023-04-02T03:03:53;6.05;;;4.90;;
20462;SDS011;10390;53.566;9.980;2023-04-02T03:06:19;5.45;;;4.95;;
20462;SDS011;10390;53.566;9.980;2023-04-02T03:08:50;7.82;;;5.05;;
20462;SDS011;10390;53.566;9.980;2023-04-02T03:11:25;6.00;;;5.20;;
20462;SDS011;10390;53.566;9.980;2023-04-02T03:14:15;5.97;;;5.20;;
20462;SDS011;10390;53.566;9.980;2023-04-02T03:16:48;7.55;;;5.10;;
20462;SDS011;10390;53.566;9.980;2023-04-02T03:19:36;7.22;;;5.10;;
20462;SDS011;10390;53.566;9.980;2023-04-02T03:22:18;5.40;;;4.90;;
20462;SDS011;10390;53.566;9.980;2023-04-02T03:24:52;5.50;;;5.00;;
20462;SDS011;10390;53.566;9.980;2023-04-02T03:27:36;6.03;;;5.07;;
20462;SDS011;10390;53.566;9.980;2023-04-02T03:32:57;6.00;;;5.40;;
20462;SDS011;10390;53.566;9.980;2023-04-02T03:35:30;6.70;;;5.07;;
20462;SDS011;10390;53.566;9.980;2023-04-02T03:38:06;6.65;;;5.50;;
20462;SDS011;10390;53.566;9.980;2023-04-02T03:40:41;6.28;;;5.30;;
20462;SDS011;10390;53.566;9.980;2023-04-02T03:43:23;5.55;;;4.72;;
20462;SDS011;10390;53.566;9.980;2023-04-02T03:45:52;6.10;;;5.30;;
20462;SDS011;10390;53.566;9.980;2023-04-02T03:48:29;6.53;;;4.90;;
20462;SDS011;10390;53.566;9.980;2023-04-02T03:54:12;5.85;;;4.95;;
20462;SDS011;10390;53.566;9.980;2023-04-02T03:56:40;5.82;;;4.53;;
20462;SDS011;10390;53.566;9.980;2023-04-02T03:59:14;5.43;;;4.93;;
20462;SDS011;10390;53.566;9.980;2023-04-02T04:02:23;6.97;;;5.03;;
20462;SDS011;10390;53.566;9.980;2023-04-02T04:04:50;5.25;;;4.43;;
20462;SDS011;10390;53.566;9.980;2023-04-02T04:07:27;4.88;;;4.38;;
20462;SDS011;10390;53.566;9.980;2023-04-02T04:09:54;5.30;;;4.72;;
20462;SDS011;10390;53.566;9.980;2023-04-02T04:14:58;5.47;;;4.97;;
20462;SDS011;10390;53.566;9.980;2023-04-02T04:21:18;6.55;;;4.88;;
20462;SDS011;10390;53.566;9.980;2023-04-02T04:23:38;6.45;;;5.00;;
20462;SDS011;10390;53.566;9.980;2023-04-02T04:31:33;5.88;;;5.03;;
20462;SDS011;10390;53.566;9.980;2023-04-02T04:34:14;5.13;;;4.53;;
20462;SDS011;10390;53.566;9.980;2023-04-02T04:36:50;5.32;;;4.47;;
20462;SDS011;10390;53.566;9.980;2023-04-02T04:39:52;4.90;;;4.40;;
20462;SDS011;10390;53.566;9.980;2023-04-02T04:42:16;5.55;;;4.45;;
20462;SDS011;10390;53.566;9.980;2023-04-02T04:44:48;6.85;;;4.55;;
20462;SDS011;10390;53.566;9.980;2023-04-02T04:47:29;5.30;;;4.43;;
20462;SDS011;10390;53.566;9.980;2023-04-02T04:50:04;5.22;;;4.72;;
20462;SDS011;10390;53.566;9.980;2023-04-02T04:52:51;5.40;;;4.40;;
20462;SDS011;10390;53.566;9.980;2023-04-02T04:55:38;7.03;;;5.03;;
20462;SDS011;10390;53.566;9.980;2023-04-02T04:58:48;6.00;;;4.80;;
20462;SDS011;10390;53.566;9.980;2023-04-02T05:01:32;4.90;;;4.40;;
20462;SDS011;10390;53.566;9.980;2023-04-02T05:04:14;5.75;;;4.38;;
20462;SDS011;10390;53.566;9.980;2023-04-02T05:09:40;5.65;;;4.22;;
20462;SDS011;10390;53.566;9.980;2023-04-02T05:12:25;6.57;;;5.00;;
20462;SDS011;10390;53.566;9.980;2023-04-02T05:15:26;5.55;;;4.70;;
20462;SDS011;10390;53.566;9.980;2023-04-02T05:18:10;5.30;;;4.30;;
20462;SDS011;10390;53.566;9.980;2023-04-02T05:20:54;5.25;;;4.53;;
20462;SDS011;10390;53.566;9.980;2023-04-02T05:26:03;6.97;;;5.47;;
20462;SDS011;10390;53.566;9.980;2023-04-02T05:31:12;7.13;;;4.65;;
20462;SDS011;10390;53.566;9.980;2023-04-02T05:33:44;5.95;;;4.82;;
20462;SDS011;10390;53.566;9.980;2023-04-02T05:36:12;5.28;;;4.47;;
20462;SDS011;10390;53.566;9.980;2023-04-02T05:38:45;7.00;;;4.60;;
20462;SDS011;10390;53.566;9.980;2023-04-02T05:44:26;6.78;;;5.07;;
20462;SDS011;10390;53.566;9.980;2023-04-02T05:47:01;7.75;;;5.45;;
20462;SDS011;10390;53.566;9.980;2023-04-02T05:49:43;7.13;;;4.72;;
20462;SDS011;10390;53.566;9.980;2023-04-02T05:52:16;6.43;;;4.68;;
20462;SDS011;10390;53.566;9.980;2023-04-02T05:57:38;7.32;;;5.10;;
20462;SDS011;10390;53.566;9.980;2023-04-02T06:00:12;8.02;;;5.00;;
20462;SDS011;10390;53.566;9.980;2023-04-02T06:02:43;9.82;;;5.40;;
20462;SDS011;10390;53.566;9.980;2023-04-02T06:05:24;7.88;;;5.00;;
20462;SDS011;10390;53.566;9.980;2023-04-02T06:07:57;8.30;;;5.10;;
20462;SDS011;10390;53.566;9.980;2023-04-02T06:10:41;9.60;;;5.70;;
20462;SDS011;10390;53.566;9.980;2023-04-02T06:13:15;8.30;;;5.65;;
20462;SDS011;10390;53.566;9.980;2023-04-02T06:15:42;8.50;;;5.50;;
20462;SDS011;10390;53.566;9.980;2023-04-02T06:18:15;6.93;;;4.93;;
20462;SDS011;10390;53.566;9.980;2023-04-02T06:20:54;7.00;;;4.82;;
20462;SDS011;10390;53.566;9.980;2023-04-02T06:26:17;7.63;;;5.40;;
20462;SDS011;10390;53.566;9.980;2023-04-02T06:28:59;10.43;;;5.20;;
20462;SDS011;10390;53.566;9.980;2023-04-02T06:31:58;7.38;;;5.75;;
20462;SDS011;10390;53.566;9.980;2023-04-02T06:34:26;10.32;;;4.80;;
20462;SDS011;10390;53.566;9.980;2023-04-02T06:37:01;7.60;;;5.22;;
20462;SDS011;10390;53.566;9.980;2023-04-02T06:39:34;6.50;;;4.80;;
20462;SDS011;10390;53.566;9.980;2023-04-02T06:42:01;11.77;;;5.38;;
20462;SDS011;10390;53.566;9.980;2023-04-02T06:44:31;7.25;;;4.38;;
20462;SDS011;10390;53.566;9.980;2023-04-02T06:47:42;7.78;;;4.85;;
20462;SDS011;10390;53.566;9.980;2023-04-02T06:52:28;9.93;;;5.57;;
20462;SDS011;10390;53.566;9.980;2023-04-02T06:54:58;7.07;;;5.10;;
20462;SDS011;10390;53.566;9.980;2023-04-02T06:57:24;9.40;;;5.85;;
20462;SDS011;10390;53.566;9.980;2023-04-02T06:59:50;10.85;;;6.25;;
20462;SDS011;10390;53.566;9.980;2023-04-02T07:04:44;12.32;;;6.32;;
20462;SDS011;10390;53.566;9.980;2023-04-02T07:07:10;11.20;;;6.57;;
20462;SDS011;10390;53.566;9.980;2023-04-02T07:09:36;12.90;;;7.53;;
20462;SDS011;10390;53.566;9.980;2023-04-02T07:12:01;14.80;;;7.85;;
20462;SDS011;10390;53.566;9.980;2023-04-02T07:14:34;15.70;;;7.85;;
20462;SDS011;10390;53.566;9.980;2023-04-02T07:17:00;14.18;;;7.93;;
20462;SDS011;10390;53.566;9.980;2023-04-02T07:19:25;15.43;;;7.53;;
20462;SDS011;10390;53.566;9.980;2023-04-02T07:21:51;11.57;;;6.70;;
20462;SDS011;10390;53.566;9.980;2023-04-02T07:24:16;12.93;;;6.63;;
20462;SDS011;10390;53.566;9.980;2023-04-02T07:26:42;11.35;;;6.22;;
20462;SDS011;10390;53.566;9.980;2023-04-02T07:29:10;8.85;;;6.47;;
20462;SDS011;10390;53.566;9.980;2023-04-02T07:31:39;11.48;;;6.70;;
20462;SDS011;10390;53.566;9.980;2023-04-02T07:34:05;9.13;;;5.63;;
20462;SDS011;10390;53.566;9.980;2023-04-02T07:36:32;9.40;;;5.68;;
20462;SDS011;10390;53.566;9.980;2023-04-02T07:38:58;8.23;;;5.72;;
20462;SDS011;10390;53.566;9.980;2023-04-02T07:41:23;8.88;;;5.82;;
20462;SDS011;10390;53.566;9.980;2023-04-02T07:43:50;7.55;;;5.50;;
20462;SDS011;10390;53.566;9.980;2023-04-02T07:46:16;9.52;;;5.35;;
20462;SDS011;10390;53.566;9.980;2023-04-02T07:48:44;7.07;;;6.03;;
20462;SDS011;10390;53.566;9.980;2023-04-02T07:51:14;8.95;;;5.63;;
20462;SDS011;10390;53.566;9.980;2023-04-02T07:53:41;8.32;;;5.93;;
20462;SDS011;10390;53.566;9.980;2023-04-02T07:56:07;7.80;;;5.65;;
20462;SDS011;10390;53.566;9.980;2023-04-02T07:58:40;7.70;;;4.90;;
20462;SDS011;10390;53.566;9.980;2023-04-02T08:01:10;7.18;;;4.70;;
20462;SDS011;10390;53.566;9.980;2023-04-02T08:03:42;7.63;;;4.65;;
20462;SDS011;10390;53.566;9.980;2023-04-02T08:06:08;6.07;;;4.75;;
20462;SDS011;10390;53.566;9.980;2023-04-02T08:08:34;7.32;;;5.05;;
20462;SDS011;10390;53.566;9.980;2023-04-02T08:11:00;7.15;;;5.28;;
20462;SDS011;10390;53.566;9.980;2023-04-02T08:13:25;7.70;;;4.78;;
20462;SDS011;10390;53.566;9.980;2023-04-02T08:15:51;8.70;;;5.05;;
20462;SDS011;10390;53.566;9.980;2023-04-02T08:18:17;7.28;;;5.00;;
20462;SDS011;10390;53.566;9.980;2023-04-02T08:20:47;8.80;;;4.80;;
20462;SDS011;10390;53.566;9.980;2023-04-02T08:23:13;6.47;;;4.50;;
20462;SDS011;10390;53.566;9.980;2023-04-02T08:25:41;6.10;;;4.82;;
20462;SDS011;10390;53.566;9.980;2023-04-02T08:28:06;6.38;;;5.00;;
20462;SDS011;10390;53.566;9.980;2023-04-02T08:30:32;6.32;;;4.80;;
20462;SDS011;10390;53.566;9.980;2023-04-02T08:32:58;7.28;;;4.45;;
20462;SDS011;10390;53.566;9.980;2023-04-02T08:35:23;5.47;;;4.85;;
20462;SDS011;10390;53.566;9.980;2023-04-02T08:37:50;6.60;;;4.93;;
20462;SDS011;10390;53.566;9.980;2023-04-02T08:40:26;7.63;;;4.88;;
20462;SDS011;10390;53.566;9.980;2023-04-02T08:45:53;5.40;;;4.43;;
20462;SDS011;10390;53.566;9.980;2023-04-02T08:48:26;5.88;;;4.80;;
20462;SDS011;10390;53.566;9.980;2023-04-02T08:50:51;6.53;;;4.90;;
20462;SDS011;10390;53.566;9.980;2023-04-02T08:53:22;4.97;;;4.20;;
20462;SDS011;10390;53.566;9.980;2023-04-02T08:58:44;5.68;;;4.80;;
20462;SDS011;10390;53.566;9.980;2023-04-02T09:04:13;5.50;;;4.93;;
20462;SDS011;10390;53.566;9.980;2023-04-02T09:06:44;5.70;;;4.60;;
20462;SDS011;10390;53.566;9.980;2023-04-02T09:09:11;5.28;;;4.50;;
20462;SDS011;10390;53.566;9.980;2023-04-02T09:11:53;5.32;;;4.53;;
20462;SDS011;10390;53.566;9.980;2023-04-02T09:14:34;4.97;;;4.43;;
20462;SDS011;10390;53.566;9.980;2023-04-02T09:17:18;4.90;;;4.35;;
20462;SDS011;10390;53.566;9.980;2023-04-02T09:19:56;4.93;;;4.43;;
20462;SDS011;10390;53.566;9.980;2023-04-02T09:22:23;5.70;;;4.20;;
20462;SDS011;10390;53.566;9.980;2023-04-02T09:24:53;5.38;;;4.47;;
20462;SDS011;10390;53.566;9.980;2023-04-02T09:27:23;5.57;;;4.93;;
20462;SDS011;10390;53.566;9.980;2023-04-02T09:29:58;6.50;;;5.43;;
20462;SDS011;10390;53.566;9.980;2023-04-02T09:35:19;5.30;;;4.80;;
20462;SDS011;10390;53.566;9.980;2023-04-02T09:37:47;5.57;;;4.97;;
20462;SDS011;10390;53.566;9.980;2023-04-02T09:43:15;5.35;;;4.80;;
20462;SDS011;10390;53.566;9.980;2023-04-02T09:56:29;5.90;;;4.63;;
20462;SDS011;10390;53.566;9.980;2023-04-02T10:01:41;5.38;;;4.88;;
20462;SDS011;10390;53.566;9.980;2023-04-02T10:07:00;5.07;;;4.25;;
20462;SDS011;10390;53.566;9.980;2023-04-02T10:09:27;5.75;;;4.50;;
20462;SDS011;10390;53.566;9.980;2023-04-02T10:11:57;5.40;;;4.85;;
20462;SDS011;10390;53.566;9.980;2023-04-02T10:14:31;5.47;;;4.68;;
20462;SDS011;10390;53.566;9.980;2023-04-02T10:17:09;6.10;;;4.40;;
20462;SDS011;10390;53.566;9.980;2023-04-02T10:19:47;5.13;;;4.40;;
20462;SDS011;10390;53.566;9.980;2023-04-02T10:22:20;5.03;;;4.53;;
20462;SDS011;10390;53.566;9.980;2023-04-02T10:24:46;4.97;;;4.40;;
20462;SDS011;10390;53.566;9.980;2023-04-02T10:33:04;5.50;;;4.80;;
20462;SDS011;10390;53.566;9.980;2023-04-02T10:35:50;5.13;;;4.63;;
20462;SDS011;10390;53.566;9.980;2023-04-02T10:41:10;4.97;;;4.47;;
20462;SDS011;10390;53.566;9.980;2023-04-02T10:52:13;5.68;;;4.78;;
20462;SDS011;10390;53.566;9.980;2023-04-02T10:54:51;5.00;;;4.47;;
20462;SDS011;10390;53.566;9.980;2023-04-02T11:05:55;5.07;;;4.57;;
20462;SDS011;10390;53.566;9.980;2023-04-02T11:11:25;5.53;;;4.68;;
20462;SDS011;10390;53.566;9.980;2023-04-02T11:13:56;4.80;;;4.30;;
20462;SDS011;10390;53.566;9.980;2023-04-02T11:16:37;5.30;;;4.80;;
20462;SDS011;10390;53.566;9.980;2023-04-02T11:27:06;6.15;;;5.55;;
20462;SDS011;10390;53.566;9.980;2023-04-02T11:29:36;5.55;;;5.05;;
20462;SDS011;10390;53.566;9.980;2023-04-02T11:42:38;5.70;;;5.20;;
20462;SDS011;10390;53.566;9.980;2023-04-02T11:50:35;6.38;;;5.72;;
20462;SDS011;10390;53.566;9.980;2023-04-02T12:07:02;5.25;;;4.70;;
20462;SDS011;10390;53.566;9.980;2023-04-02T12:09:26;5.18;;;4.68;;
20462;SDS011;10390;53.566;9.980;2023-04-02T12:11:57;5.00;;;4.50;;
20462;SDS011;10390;53.566;9.980;2023-04-02T12:16:56;5.00;;;4.50;;
20462;SDS011;10390;53.566;9.980;2023-04-02T12:19:22;5.53;;;5.00;;
20462;SDS011;10390;53.566;9.980;2023-04-02T12:21:49;4.40;;;4.00;;
20462;SDS011;10390;53.566;9.980;2023-04-02T12:24:20;5.13;;;4.63;;
20462;SDS011;10390;53.566;9.980;2023-04-02T12:26:48;5.32;;;4.82;;
20462;SDS011;10390;53.566;9.980;2023-04-02T12:29:30;5.00;;;4.50;;
20462;SDS011;10390;53.566;9.980;2023-04-02T12:31:57;5.28;;;4.78;;
20462;SDS011;10390;53.566;9.980;2023-04-02T12:34:24;4.90;;;4.40;;
20462;SDS011;10390;53.566;9.980;2023-04-02T12:36:53;5.60;;;5.00;;
20462;SDS011;10390;53.566;9.980;2023-04-02T12:39:21;5.82;;;5.32;;
20462;SDS011;10390;53.566;9.980;2023-04-02T12:41:47;5.13;;;4.63;;
20462;SDS011;10390;53.566;9.980;2023-04-02T12:46:44;5.40;;;4.90;;
20462;SDS011;10390;53.566;9.980;2023-04-02T12:52:10;4.63;;;4.15;;
20462;SDS011;10390;53.566;9.980;2023-04-02T12:55:14;4.68;;;3.88;;
20462;SDS011;10390;53.566;9.980;2023-04-02T12:57:34;4.78;;;4.28;;
20462;SDS011;10390;53.566;9.980;2023-04-02T13:00:48;16.20;;;4.80;;
20462;SDS011;10390;53.566;9.980;2023-04-02T13:02:59;5.60;;;5.00;;
20462;SDS011;10390;53.566;9.980;2023-04-02T13:05:37;5.30;;;4.72;;
20462;SDS011;10390;53.566;9.980;2023-04-02T13:08:14;5.60;;;5.10;;
20462;SDS011;10390;53.566;9.980;2023-04-02T13:10:55;5.20;;;4.70;;
20462;SDS011;10390;53.566;9.980;2023-04-02T13:13:33;6.28;;;5.68;;
20462;SDS011;10390;53.566;9.980;2023-04-02T13:16:02;4.90;;;4.28;;
20462;SDS011;10390;53.566;9.980;2023-04-02T13:18:28;5.22;;;4.70;;
20462;SDS011;10390;53.566;9.980;2023-04-02T13:25:54;4.82;;;4.43;;
20462;SDS011;10390;53.566;9.980;2023-04-02T13:28:21;5.65;;;5.15;;
20462;SDS011;10390;53.566;9.980;2023-04-02T13:30:47;4.82;;;4.10;;
20462;SDS011;10390;53.566;9.980;2023-04-02T13:33:13;5.00;;;4.50;;
20462;SDS011;10390;53.566;9.980;2023-04-02T13:35:39;5.18;;;4.60;;
20462;SDS011;10390;53.566;9.980;2023-04-02T13:38:05;5.22;;;4.43;;
20462;SDS011;10390;53.566;9.980;2023-04-02T13:40:32;5.28;;;4.78;;
20462;SDS011;10390;53.566;9.980;2023-04-02T13:42:59;4.43;;;4.03;;
20462;SDS011;10390;53.566;9.980;2023-04-02T13:45:27;4.18;;;3.78;;
20462;SDS011;10390;53.566;9.980;2023-04-02T13:47:56;5.20;;;4.43;;
20462;SDS011;10390;53.566;9.980;2023-04-02T13:50:25;5.18;;;4.65;;
20462;SDS011;10390;53.566;9.980;2023-04-02T13:52:51;4.80;;;4.13;;
20462;SDS011;10390;53.566;9.980;2023-04-02T13:55:22;4.55;;;4.15;;
20462;SDS011;10390;53.566;9.980;2023-04-02T13:57:52;4.50;;;4.10;;
20462;SDS011;10390;53.566;9.980;2023-04-02T14:00:19;4.90;;;4.00;;
20462;SDS011;10390;53.566;9.980;2023-04-02T14:02:56;4.72;;;4.00;;
20462;SDS011;10390;53.566;9.980;2023-04-02T14:13:27;5.60;;;5.10;;
20462;SDS011;10390;53.566;9.980;2023-04-02T14:16:10;5.53;;;4.55;;
20462;SDS011;10390;53.566;9.980;2023-04-02T14:18:42;4.57;;;4.18;;
20462;SDS011;10390;53.566;9.980;2023-04-02T14:21:16;4.90;;;4.00;;
20462;SDS011;10390;53.566;9.980;2023-04-02T14:31:40;7.03;;;5.70;;
20462;SDS011;10390;53.566;9.980;2023-04-02T14:34:15;5.85;;;4.95;;
20462;SDS011;10390;53.566;9.980;2023-04-02T14:42:08;5.30;;;4.80;;
20462;SDS011;10390;53.566;9.980;2023-04-02T14:44:59;5.43;;;4.78;;
20462;SDS011;10390;53.566;9.980;2023-04-02T14:47:32;5.00;;;4.50;;
20462;SDS011;10390;53.566;9.980;2023-04-02T14:50:23;5.55;;;4.70;;
20462;SDS011;10390;53.566;9.980;2023-04-02T14:52:55;5.25;;;4.72;;
20462;SDS011;10390;53.566;9.980;2023-04-02T14:55:40;5.35;;;4.57;;
20462;SDS011;10390;53.566;9.980;2023-04-02T14:58:18;6.20;;;5.60;;
20462;SDS011;10390;53.566;9.980;2023-04-02T15:00:59;5.38;;;4.88;;
20462;SDS011;10390;53.566;9.980;2023-04-02T15:03:34;6.13;;;5.07;;
20462;SDS011;10390;53.566;9.980;2023-04-02T15:06:10;5.65;;;5.10;;
20462;SDS011;10390;53.566;9.980;2023-04-02T15:08:43;5.68;;;5.15;;
20462;SDS011;10390;53.566;9.980;2023-04-02T15:11:37;5.78;;;5.20;;
20462;SDS011;10390;53.566;9.980;2023-04-02T15:14:18;4.75;;;4.25;;
20462;SDS011;10390;53.566;9.980;2023-04-02T15:16:47;5.68;;;5.10;;
20462;SDS011;10390;53.566;9.980;2023-04-02T15:19:16;5.20;;;4.70;;
20462;SDS011;10390;53.566;9.980;2023-04-02T15:21:48;6.18;;;4.20;;
20462;SDS011;10390;53.566;9.980;2023-04-02T15:24:32;5.28;;;4.40;;
20462;SDS011;10390;53.566;9.980;2023-04-02T15:29:59;5.68;;;4.57;;
20462;SDS011;10390;53.566;9.980;2023-04-02T15:32:36;5.65;;;4.68;;
20462;SDS011;10390;53.566;9.980;2023-04-02T15:41:00;7.72;;;4.40;;
20462;SDS011;10390;53.566;9.980;2023-04-02T15:51:58;6.10;;;4.38;;
20462;SDS011;10390;53.566;9.980;2023-04-02T16:10:53;7.53;;;4.47;;
20462;SDS011;10390;53.566;9.980;2023-04-02T16:13:25;7.47;;;4.43;;
20462;SDS011;10390;53.566;9.980;2023-04-02T16:16:14;6.22;;;3.92;;
20462;SDS011;10390;53.566;9.980;2023-04-02T16:21:47;6.63;;;4.45;;
20462;SDS011;10390;53.566;9.980;2023-04-02T16:24:22;5.65;;;4.20;;
20462;SDS011;10390;53.566;9.980;2023-04-02T16:29:37;5.93;;;4.38;;
20462;SDS011;10390;53.566;9.980;2023-04-02T16:34:59;8.70;;;4.57;;
20462;SDS011;10390;53.566;9.980;2023-04-02T16:37:33;6.93;;;4.40;;
20462;SDS011;10390;53.566;9.980;2023-04-02T16:48:25;8.05;;;3.97;;
20462;SDS011;10390;53.566;9.980;2023-04-02T17:02:01;6.93;;;4.60;;
20462;SDS011;10390;53.566;9.980;2023-04-02T17:04:58;12.05;;;5.28;;
20462;SDS011;10390;53.566;9.980;2023-04-02T17:10:29;13.82;;;5.43;;
20462;SDS011;10390;53.566;9.980;2023-04-02T17:13:07;10.75;;;5.38;;
20462;SDS011;10390;53.566;9.980;2023-04-02T17:15:41;14.05;;;5.35;;
20462;SDS011;10390;53.566;9.980;2023-04-02T17:18:16;13.80;;;5.88;;
20462;SDS011;10390;53.566;9.980;2023-04-02T17:20:49;15.07;;;5.88;;
20462;SDS011;10390;53.566;9.980;2023-04-02T17:23:15;11.20;;;5.72;;
20462;SDS011;10390;53.566;9.980;2023-04-02T17:25:56;9.25;;;5.43;;
20462;SDS011;10390;53.566;9.980;2023-04-02T17:28:29;13.52;;;5.70;;
20462;SDS011;10390;53.566;9.980;2023-04-02T17:31:00;13.45;;;5.63;;
20462;SDS011;10390;53.566;9.980;2023-04-02T17:33:31;11.70;;;5.50;;
20462;SDS011;10390;53.566;9.980;2023-04-02T17:38:38;16.48;;;6.20;;
20462;SDS011;10390;53.566;9.980;2023-04-02T17:44:28;14.05;;;5.57;;
20462;SDS011;10390;53.566;9.980;2023-04-02T17:47:00;13.50;;;5.60;;
20462;SDS011;10390;53.566;9.980;2023-04-02T17:52:20;13.23;;;6.00;;
20462;SDS011;10390;53.566;9.980;2023-04-02T17:57:55;11.73;;;6.00;;
20462;SDS011;10390;53.566;9.980;2023-04-02T18:06:25;13.27;;;5.97;;
20462;SDS011;10390;53.566;9.980;2023-04-02T18:14:03;14.10;;;6.22;;
20462;SDS011;10390;53.566;9.980;2023-04-02T18:20:02;11.27;;;5.97;;
20462;SDS011;10390;53.566;9.980;2023-04-02T18:38:02;10.70;;;5.50;;
20462;SDS011;10390;53.566;9.980;2023-04-02T18:40:51;11.70;;;6.07;;
20462;SDS011;10390;53.566;9.980;2023-04-02T18:43:41;8.95;;;5.80;;
20462;SDS011;10390;53.566;9.980;2023-04-02T18:49:25;12.00;;;6.00;;
20462;SDS011;10390;53.566;9.980;2023-04-02T18:52:12;10.13;;;5.63;;
20462;SDS011;10390;53.566;9.980;2023-04-02T18:54:42;10.98;;;6.18;;
20462;SDS011;10390;53.566;9.980;2023-04-02T18:57:28;16.65;;;6.10;;
20462;SDS011;10390;53.566;9.980;2023-04-02T19:11:04;10.55;;;6.45;;
20462;SDS011;10390;53.566;9.980;2023-04-02T19:13:46;11.38;;;6.68;;
20462;SDS011;10390;53.566;9.980;2023-04-02T19:27:22;10.60;;;6.10;;
20462;SDS011;10390;53.566;9.980;2023-04-02T19:37:55;9.88;;;5.78;;
20462;SDS011;10390;53.566;9.980;2023-04-02T19:43:16;12.85;;;6.43;;
20462;SDS011;10390;53.566;9.980;2023-04-02T19:45:42;11.05;;;6.65;;
20462;SDS011;10390;53.566;9.980;2023-04-02T19:50:39;9.73;;;6.47;;
20462;SDS011;10390;53.566;9.980;2023-04-02T19:53:05;10.07;;;6.35;;
20462;SDS011;10390;53.566;9.980;2023-04-02T19:55:31;8.63;;;6.13;;
20462;SDS011;10390;53.566;9.980;2023-04-02T19:57:57;11.02;;;7.05;;
20462;SDS011;10390;53.566;9.980;2023-04-02T20:00:23;10.20;;;5.90;;
20462;SDS011;10390;53.566;9.980;2023-04-02T20:02:48;6.65;;;5.60;;
20462;SDS011;10390;53.566;9.980;2023-04-02T20:05:14;9.80;;;5.90;;
20462;SDS011;10390;53.566;9.980;2023-04-02T20:07:40;11.32;;;6.28;;
20462;SDS011;10390;53.566;9.980;2023-04-02T20:10:06;10.93;;;6.03;;
20462;SDS011;10390;53.566;9.980;2023-04-02T20:12:32;10.38;;;6.30;;
20462;SDS011;10390;53.566;9.980;2023-04-02T20:14:57;14.30;;;6.45;;
20462;SDS011;10390;53.566;9.980;2023-04-02T20:17:23;7.70;;;6.00;;
20462;SDS011;10390;53.566;9.980;2023-04-02T20:19:48;9.48;;;5.78;;
20462;SDS011;10390;53.566;9.980;2023-04-02T20:22:14;6.90;;;5.40;;
20462;SDS011;10390;53.566;9.980;2023-04-02T20:24:40;8.63;;;5.97;;
20462;SDS011;10390;53.566;9.980;2023-04-02T20:27:06;9.57;;;6.45;;
20462;SDS011;10390;53.566;9.980;2023-04-02T20:29:32;9.43;;;6.00;;
20462;SDS011;10390;53.566;9.980;2023-04-02T20:31:58;10.10;;;6.88;;
20462;SDS011;10390;53.566;9.980;2023-04-02T20:34:23;7.93;;;6.30;;
20462;SDS011;10390;53.566;9.980;2023-04-02T20:36:49;10.00;;;5.90;;
20462;SDS011;10390;53.566;9.980;2023-04-02T20:39:15;10.82;;;6.32;;
20462;SDS011;10390;53.566;9.980;2023-04-02T20:41:45;9.93;;;6.50;;
20462;SDS011;10390;53.566;9.980;2023-04-02T20:44:11;11.13;;;6.47;;
20462;SDS011;10390;53.566;9.980;2023-04-02T20:46:37;11.43;;;6.85;;
20462;SDS011;10390;53.566;9.980;2023-04-02T20:49:03;9.70;;;6.60;;
20462;SDS011;10390;53.566;9.980;2023-04-02T20:51:29;9.85;;;6.20;;
20462;SDS011;10390;53.566;9.980;2023-04-02T20:53:54;8.85;;;6.63;;
20462;SDS011;10390;53.566;9.980;2023-04-02T20:56:20;13.10;;;7.00;;
20462;SDS011;10390;53.566;9.980;2023-04-02T20:58:50;10.02;;;7.10;;
20462;SDS011;10390;53.566;9.980;2023-04-02T21:03:46;8.77;;;6.60;;
20462;SDS011;10390;53.566;9.980;2023-04-02T21:06:13;10.48;;;7.03;;